Time,TemperatureF,DewpointF,PressureIn,WindDirection,WindDirectionDegrees,WindSpeedMPH,WindSpeedGustMPH,Humidity,HourlyPrecipIn,Conditions,Clouds,dailyrainin,SoftwareType,DateUTC
2013-08-05 00:06:00,57.9,52.0,29.88,WNW,295,0.0,5.0,81,0.00,,,0.00,weatherlink.com 1.10,2013-08-05 04:06:00,
2013-08-05 00:21:00,57.9,51.0,29.89,West,260,2.0,6.0,79,0.00,,,0.00,weatherlink.com 1.10,2013-08-05 04:21:00,
2013-08-05 00:36:00,57.1,51.0,29.88,WSW,248,0.0,3.0,80,0.00,,,0.00,weatherlink.com 1.10,2013-08-05 04:36:00,
2013-08-05 01:06:00,56.3,51.0,29.88,WNW,293,2.0,6.0,81,0.00,,,0.00,weatherlink.com 1.10,2013-08-05 05:06:00,
2013-08-05 01:21:00,56.7,51.0,29.88,West,262,2.0,6.0,81,0.00,,,0.00,weatherlink.com 1.10,2013-08-05 05:21:00,
2013-08-05 01:36:00,57.1,51.0,29.88,WSW,256,2.0,6.0,79,0.00,,,0.00,weatherlink.com 1.10,2013-08-05 05:36:00,
2013-08-05 01:51:00,56.4,51.0,29.88,NW,309,3.0,7.0,81,0.00,,,0.00,weatherlink.com 1.10,2013-08-05 05:51:00,
2013-08-05 02:06:00,55.9,51.0,29.87,West,266,1.0,7.0,82,0.00,,,0.00,weatherlink.com 1.10,2013-08-05 06:06:00,
2013-08-05 02:21:00,55.4,50.0,29.87,West,263,5.0,5.0,82,0.00,,,0.00,weatherlink.com 1.10,2013-08-05 06:21:00,
2013-08-05 02:36:00,55.6,50.0,29.87,West,260,0.0,7.0,82,0.00,,,0.00,weatherlink.com 1.10,2013-08-05 06:36:00,
2013-08-05 02:51:00,56.0,51.0,29.87,NNW,345,6.0,7.0,82,0.00,,,0.00,weatherlink.com 1.10,2013-08-05 06:51:00,
2013-08-05 03:07:00,56.8,51.0,29.88,SW,226,3.0,10.0,80,0.00,,,0.00,weatherlink.com 1.10,2013-08-05 07:07:00,
2013-08-05 03:22:00,56.6,51.0,29.88,WSW,256,7.0,10.0,81,0.00,,,0.00,weatherlink.com 1.10,2013-08-05 07:22:00,
2013-08-05 03:52:00,56.2,51.0,29.88,West,277,6.0,8.0,82,0.00,,,0.00,weatherlink.com 1.10,2013-08-05 07:52:00,
2013-08-05 04:07:00,56.0,51.0,29.88,WNW,295,3.0,10.0,82,0.00,,,0.00,weatherlink.com 1.10,2013-08-05 08:07:00,
2013-08-05 04:22:00,55.9,51.0,29.88,West,270,0.0,8.0,82,0.00,,,0.00,weatherlink.com 1.10,2013-08-05 08:22:00,
2013-08-05 04:37:00,55.5,50.0,29.89,SW,228,3.0,6.0,83,0.00,,,0.00,weatherlink.com 1.10,2013-08-05 08:37:00,
2013-08-05 04:52:00,55.0,50.0,29.89,West,277,1.0,7.0,84,0.00,,,0.00,weatherlink.com 1.10,2013-08-05 08:52:00,
2013-08-05 05:07:00,55.0,50.0,29.90,West,278,3.0,5.0,84,0.00,,,0.00,weatherlink.com 1.10,2013-08-05 09:07:00,
2013-08-05 05:22:00,54.8,50.0,29.91,NW,311,2.0,5.0,84,0.00,,,0.00,weatherlink.com 1.10,2013-08-05 09:22:00,
2013-08-05 05:52:00,53.7,50.0,29.92,West,267,2.0,7.0,87,0.00,,,0.00,weatherlink.com 1.10,2013-08-05 09:52:00,
2013-08-05 06:07:00,53.8,50.0,29.93,West,264,2.0,9.0,86,0.00,,,0.00,weatherlink.com 1.10,2013-08-05 10:07:00,
2013-08-05 06:22:00,54.4,50.0,29.93,WNW,300,5.0,10.0,85,0.00,,,0.00,weatherlink.com 1.10,2013-08-05 10:22:00,
2013-08-05 06:37:00,54.9,50.0,29.93,WNW,293,5.0,11.0,83,0.00,,,0.00,weatherlink.com 1.10,2013-08-05 10:37:00,
2013-08-05 06:52:00,55.2,50.0,29.93,West,277,4.0,14.0,82,0.00,,,0.00,weatherlink.com 1.10,2013-08-05 10:52:00,
2013-08-05 07:22:00,56.5,50.0,29.94,West,280,1.0,9.0,79,0.00,,,0.00,weatherlink.com 1.10,2013-08-05 11:22:00,
2013-08-05 07:37:00,57.3,50.0,29.94,WNW,287,1.0,14.0,76,0.00,,,0.00,weatherlink.com 1.10,2013-08-05 11:37:00,
2013-08-05 07:52:00,57.8,50.0,29.94,SSW,210,3.0,15.0,74,0.00,,,0.00,weatherlink.com 1.10,2013-08-05 11:52:00,
2013-08-05 08:07:00,58.3,50.0,29.94,WSW,257,4.0,12.0,73,0.00,,,0.00,weatherlink.com 1.10,2013-08-05 12:07:00,
2013-08-05 08:22:00,58.6,50.0,29.95,WNW,285,2.0,12.0,72,0.00,,,0.00,weatherlink.com 1.10,2013-08-05 12:22:00,
2013-08-05 08:37:00,59.1,48.0,29.95,West,264,4.0,11.0,66,0.00,,,0.00,weatherlink.com 1.10,2013-08-05 12:37:00,
2013-08-05 09:07:00,59.7,48.0,29.94,WNW,285,2.0,13.0,66,0.00,,,0.00,weatherlink.com 1.10,2013-08-05 13:07:00,
2013-08-05 09:22:00,60.3,46.0,29.94,SSE,155,2.0,14.0,59,0.00,,,0.00,weatherlink.com 1.10,2013-08-05 13:22:00,
2013-08-05 09:37:00,60.6,46.0,29.94,WSW,256,6.0,18.0,60,0.00,,,0.00,weatherlink.com 1.10,2013-08-05 13:37:00,
2013-08-05 10:23:00,62.6,46.0,29.94,SW,222,4.0,14.0,56,0.00,,,0.00,weatherlink.com 1.10,2013-08-05 14:23:00,
2013-08-05 10:38:00,62.7,46.0,29.94,WSW,249,4.0,16.0,54,0.00,,,0.00,weatherlink.com 1.10,2013-08-05 14:38:00,
2013-08-05 11:08:00,63.6,48.0,29.94,WSW,250,3.0,13.0,57,0.00,,,0.00,weatherlink.com 1.10,2013-08-05 15:08:00,
2013-08-05 11:38:00,64.8,47.0,29.94,North,6,6.0,17.0,53,0.00,,,0.00,weatherlink.com 1.10,2013-08-05 15:38:00,
2013-08-05 11:52:00,65.8,47.0,29.94,NW,310,3.0,15.0,51,0.00,,,0.00,weatherlink.com 1.10,2013-08-05 15:52:00,
2013-08-05 12:08:00,65.5,45.0,29.94,West,278,6.0,16.0,48,0.00,,,0.00,weatherlink.com 1.10,2013-08-05 16:08:00,
2013-08-05 12:23:00,66.4,45.0,29.94,West,280,4.0,12.0,47,0.00,,,0.00,weatherlink.com 1.10,2013-08-05 16:23:00,
2013-08-05 12:38:00,67.0,45.0,29.93,NW,308,8.0,14.0,45,0.00,,,0.00,weatherlink.com 1.10,2013-08-05 16:38:00,
2013-08-05 12:53:00,67.5,43.0,29.93,WNW,290,7.0,12.0,42,0.00,,,0.00,weatherlink.com 1.10,2013-08-05 16:53:00,
2013-08-05 13:08:00,68.0,46.0,29.93,West,262,5.0,11.0,46,0.00,,,0.00,weatherlink.com 1.10,2013-08-05 17:08:00,
2013-08-05 13:23:00,68.3,44.0,29.94,West,271,2.0,11.0,41,0.00,,,0.00,weatherlink.com 1.10,2013-08-05 17:23:00,
2013-08-05 13:38:00,68.2,43.0,29.93,NNW,339,8.0,16.0,40,0.00,,,0.00,weatherlink.com 1.10,2013-08-05 17:38:00,
2013-08-05 13:53:00,69.3,43.0,29.93,NNW,333,4.0,10.0,39,0.00,,,0.00,weatherlink.com 1.10,2013-08-05 17:53:00,
2013-08-05 14:08:00,68.8,44.0,29.93,WNW,297,5.0,10.0,41,0.00,,,0.00,weatherlink.com 1.10,2013-08-05 18:08:00,
2013-08-05 14:23:00,69.3,45.0,29.93,SW,232,7.0,11.0,42,0.00,,,0.00,weatherlink.com 1.10,2013-08-05 18:23:00,
2013-08-05 14:38:00,69.7,45.0,29.93,WNW,290,3.0,12.0,42,0.00,,,0.00,weatherlink.com 1.10,2013-08-05 18:38:00,
2013-08-05 14:53:00,69.9,44.0,29.93,WNW,294,4.0,12.0,40,0.00,,,0.00,weatherlink.com 1.10,2013-08-05 18:53:00,
2013-08-05 15:08:00,70.2,46.0,29.93,WNW,285,1.0,12.0,42,0.00,,,0.00,weatherlink.com 1.10,2013-08-05 19:08:00,
2013-08-05 15:23:00,70.1,45.0,29.93,SW,226,4.0,11.0,40,0.00,,,0.00,weatherlink.com 1.10,2013-08-05 19:23:00,
2013-08-05 15:53:00,70.1,46.0,29.93,WSW,242,3.0,14.0,42,0.00,,,0.00,weatherlink.com 1.10,2013-08-05 19:53:00,
2013-08-05 16:08:00,70.6,44.0,29.93,WNW,299,1.0,13.0,39,0.00,,,0.00,weatherlink.com 1.10,2013-08-05 20:08:00,
2013-08-05 16:38:00,70.3,43.0,29.94,West,277,2.0,11.0,37,0.00,,,0.00,weatherlink.com 1.10,2013-08-05 20:38:00,
2013-08-05 16:53:00,70.6,46.0,29.94,ENE,58,4.0,7.0,41,0.00,,,0.00,weatherlink.com 1.10,2013-08-05 20:53:00,
2013-08-05 17:08:00,70.2,44.0,29.94,SW,232,2.0,9.0,39,0.00,,,0.00,weatherlink.com 1.10,2013-08-05 21:08:00,
2013-08-05 17:23:00,70.5,47.0,29.94,SW,236,4.0,7.0,43,0.00,,,0.00,weatherlink.com 1.10,2013-08-05 21:23:00,
2013-08-05 17:53:00,70.2,44.0,29.95,West,266,3.0,8.0,39,0.00,,,0.00,weatherlink.com 1.10,2013-08-05 21:53:00,
2013-08-05 18:23:00,69.9,46.0,29.96,NW,311,0.0,6.0,42,0.00,,,0.00,weatherlink.com 1.10,2013-08-05 22:23:00,
2013-08-05 18:38:00,69.4,45.0,29.97,WNW,293,1.0,6.0,41,0.00,,,0.00,weatherlink.com 1.10,2013-08-05 22:38:00,
2013-08-05 18:53:00,69.0,48.0,29.97,SE,134,0.0,3.0,48,0.00,,,0.00,weatherlink.com 1.10,2013-08-05 22:53:00,
2013-08-05 19:08:00,66.7,48.0,29.98,SSE,155,0.0,2.0,52,0.00,,,0.00,weatherlink.com 1.10,2013-08-05 23:08:00,
2013-08-05 19:39:00,60.9,49.0,29.99,SE,143,0.0,0.0,64,0.00,,,0.00,weatherlink.com 1.10,2013-08-05 23:39:00,
2013-08-05 19:54:00,58.7,49.0,29.99,SSW,200,0.0,0.0,70,0.00,,,0.00,weatherlink.com 1.10,2013-08-05 23:54:00,
2013-08-05 20:09:00,56.9,50.0,30.00,SSW,200,0.0,0.0,77,0.00,,,0.00,weatherlink.com 1.10,2013-08-06 00:09:00,
2013-08-05 20:24:00,55.2,50.0,30.00,SSW,200,0.0,0.0,81,0.00,,,0.00,weatherlink.com 1.10,2013-08-06 00:24:00,
2013-08-05 20:39:00,53.9,49.0,30.01,SSW,210,0.0,0.0,83,0.00,,,0.00,weatherlink.com 1.10,2013-08-06 00:39:00,
2013-08-05 20:54:00,52.1,48.0,30.02,SSW,210,0.0,0.0,87,0.00,,,0.00,weatherlink.com 1.10,2013-08-06 00:54:00,
2013-08-05 21:09:00,51.0,48.0,30.02,SSW,210,0.0,0.0,90,0.00,,,0.00,weatherlink.com 1.10,2013-08-06 01:09:00,
2013-08-05 21:39:00,51.4,48.0,30.03,ESE,120,0.0,0.0,88,0.00,,,0.00,weatherlink.com 1.10,2013-08-06 01:39:00,
2013-08-05 21:54:00,50.7,48.0,30.03,SSW,212,0.0,1.0,89,0.00,,,0.00,weatherlink.com 1.10,2013-08-06 01:54:00,
2013-08-05 22:09:00,49.7,47.0,30.03,SSW,212,0.0,0.0,91,0.00,,,0.00,weatherlink.com 1.10,2013-08-06 02:09:00,
2013-08-05 22:39:00,48.9,47.0,30.02,SSW,211,0.0,0.0,93,0.00,,,0.00,weatherlink.com 1.10,2013-08-06 02:39:00,
2013-08-05 22:54:00,49.4,47.0,30.02,SSW,212,0.0,0.0,92,0.00,,,0.00,weatherlink.com 1.10,2013-08-06 02:54:00,
2013-08-05 23:09:00,48.5,46.0,30.03,SSE,150,0.0,0.0,92,0.00,,,0.00,weatherlink.com 1.10,2013-08-06 03:09:00,
2013-08-05 23:24:00,48.8,46.0,30.04,SE,139,0.0,0.0,91,0.00,,,0.00,weatherlink.com 1.10,2013-08-06 03:24:00,